X  Close Metar Aviation Weather Data        LEGR Granada
Temperature
-3°C Temperature
-3°C Dewpoint
100% Humidity



Wind
0 KM/H
0 MPH
0 M/S
0 KTS



Calm
N
Current Conditions

Mostly Clear Mostly Clear
Pressure 1031 (hPa) - 30.43 (inHg)
Visibility 7 (mile) - 11 (km)
Airport
Airport-code LEGR

Location: Granada
Distance: 56 (km)

Metar:
METAR LEGR 180630Z 00000KT CAVOK M03/M03 Q1027

Time: 18-01-2021 07:30 CET